createdAt,value
2022-10-18T00:01:09.149Z,98904.13
2022-10-18T00:06:14.816Z,98902.58
2022-10-18T00:08:42.683Z,98900.39
2022-10-18T00:11:10.709Z,98897.71
2022-10-18T00:13:38.828Z,98899.89
2022-10-18T00:16:12.354Z,98896.80
2022-10-18T00:18:41.109Z,98898.08
2022-10-18T00:21:14.310Z,98896.79
2022-10-18T00:23:42.795Z,98894.81
2022-10-18T00:26:14.753Z,98891.45
2022-10-18T00:28:43.841Z,98892.85
2022-10-18T00:31:18.017Z,98889.38
2022-10-18T00:33:50.136Z,98890.54
2022-10-18T00:36:18.208Z,98894.32
2022-10-18T00:38:47.221Z,98890.89
2022-10-18T00:41:18.961Z,98890.41
2022-10-18T00:43:51.287Z,98886.49
2022-10-18T00:46:19.613Z,98885.48
2022-10-18T00:48:48.563Z,98881.80
2022-10-18T00:51:20.460Z,98881.82
2022-10-18T00:53:49.557Z,98881.83
2022-10-18T00:56:18.099Z,98884.51
2022-10-18T00:58:48.157Z,98888.08
2022-10-18T01:01:16.263Z,98888.52
2022-10-18T01:03:44.607Z,98882.82
2022-10-18T01:06:12.620Z,98879.95
2022-10-18T01:08:45.769Z,98877.17
2022-10-18T01:11:22.648Z,98879.27
2022-10-18T01:14:22.668Z,98875.43
2022-10-18T01:17:00.461Z,98872.56
2022-10-18T01:19:49.533Z,98872.92
2022-10-18T01:22:33.987Z,98872.23
2022-10-18T01:25:26.442Z,98866.40
2022-10-18T01:28:31.637Z,98863.88
2022-10-18T01:31:18.634Z,98866.30
2022-10-18T01:33:52.160Z,98865.77
2022-10-18T01:36:33.107Z,98861.38
2022-10-18T01:39:06.279Z,98859.66
2022-10-18T01:41:38.755Z,98857.97
2022-10-18T01:44:09.604Z,98851.21
2022-10-18T01:46:39.903Z,98846.71
2022-10-18T01:49:07.969Z,98843.19
2022-10-18T01:51:36.342Z,98842.20
2022-10-18T01:54:05.110Z,98839.96
2022-10-18T01:57:24.403Z,98836.30
2022-10-18T02:00:00.787Z,98834.30
2022-10-18T02:02:59.432Z,98834.33
2022-10-18T02:05:40.345Z,98831.48
2022-10-18T02:08:23.151Z,98832.33
2022-10-18T02:10:57.364Z,98830.09
2022-10-18T02:13:29.396Z,98831.28
2022-10-18T02:16:03.831Z,98830.02
2022-10-18T02:18:40.015Z,98829.75
2022-10-18T02:21:11.617Z,98827.84
2022-10-18T02:23:39.902Z,98823.69
2022-10-18T02:26:08.123Z,98820.06
2022-10-18T02:28:36.216Z,98820.23
2022-10-18T02:31:31.083Z,98818.39
2022-10-18T02:34:10.180Z,98819.41
2022-10-18T02:36:46.490Z,98819.44
2022-10-18T02:39:30.534Z,98816.81
2022-10-18T02:41:59.850Z,98816.18
2022-10-18T02:44:27.703Z,98817.70
2022-10-18T02:46:55.755Z,98821.39
2022-10-18T02:49:23.748Z,98823.48
2022-10-18T02:51:51.928Z,98822.17
2022-10-18T02:54:20.198Z,98821.21
2022-10-18T02:56:48.269Z,98822.76
2022-10-18T02:59:17.059Z,98822.14
2022-10-18T03:01:45.237Z,98822.70
2022-10-18T03:04:13.532Z,98822.41
2022-10-18T03:06:41.582Z,98821.95
2022-10-18T03:09:10.162Z,98821.27
2022-10-18T03:11:38.239Z,98821.89
2022-10-18T03:14:06.205Z,98819.79
2022-10-18T03:16:34.379Z,98819.88
2022-10-18T03:19:02.418Z,98816.42
2022-10-18T03:21:30.522Z,98815.23
2022-10-18T03:23:59.775Z,98815.98
2022-10-18T03:26:27.693Z,98815.96
2022-10-18T03:28:55.923Z,98810.79
2022-10-18T03:31:23.943Z,98807.92
2022-10-18T03:33:52.010Z,98807.64
2022-10-18T03:36:23.061Z,98803.77
2022-10-18T03:38:51.020Z,98801.54
2022-10-18T03:41:20.717Z,98803.49
2022-10-18T03:43:48.881Z,98803.75
2022-10-18T03:46:17.190Z,98802.90
2022-10-18T03:48:45.060Z,98806.67
2022-10-18T03:51:13.122Z,98806.88
2022-10-18T03:53:40.957Z,98807.24
2022-10-18T03:56:08.855Z,98803.02
2022-10-18T03:58:36.860Z,98809.05
2022-10-18T04:01:04.899Z,98813.33
2022-10-18T04:03:32.819Z,98814.29
2022-10-18T04:06:00.941Z,98813.57
2022-10-18T04:08:29.555Z,98811.14
2022-10-18T04:10:57.617Z,98808.65
2022-10-18T04:13:25.497Z,98810.79
2022-10-18T04:15:53.442Z,98807.81
2022-10-18T04:18:21.406Z,98805.60
2022-10-18T04:20:49.288Z,98800.90
2022-10-18T04:23:17.268Z,98796.90
2022-10-18T04:25:45.213Z,98797.61
2022-10-18T04:28:13.184Z,98800.38
2022-10-18T04:30:41.049Z,98799.04
2022-10-18T04:33:09.013Z,98801.15
2022-10-18T04:35:37.089Z,98798.29
2022-10-18T04:38:04.958Z,98793.17
2022-10-18T04:40:33.030Z,98792.35
2022-10-18T04:43:01.036Z,98792.94
2022-10-18T04:45:29.374Z,98794.59
2022-10-18T04:47:57.445Z,98796.36
2022-10-18T04:50:25.415Z,98794.27
2022-10-18T04:52:53.810Z,98795.86
2022-10-18T04:55:21.711Z,98798.91
2022-10-18T04:57:49.686Z,98803.10
2022-10-18T05:00:17.805Z,98802.36
2022-10-18T05:02:45.773Z,98800.83
2022-10-18T05:05:14.415Z,98798.80
2022-10-18T05:07:42.637Z,98796.48
2022-10-18T05:10:11.118Z,98795.60
2022-10-18T05:12:39.188Z,98788.52
2022-10-18T05:15:07.670Z,98786.21
2022-10-18T05:17:36.101Z,98786.48
2022-10-18T05:20:04.940Z,98781.66
2022-10-18T05:22:33.313Z,98778.15
2022-10-18T05:25:01.576Z,98778.90
2022-10-18T05:27:29.956Z,98782.16
2022-10-18T05:30:00.033Z,98782.11
2022-10-18T05:32:31.555Z,98786.21
2022-10-18T05:34:59.811Z,98791.70
2022-10-18T05:37:28.520Z,98789.32
2022-10-18T05:39:56.657Z,98792.15
2022-10-18T05:42:24.934Z,98791.70
2022-10-18T05:44:53.109Z,98794.65
2022-10-18T05:47:21.384Z,98798.15
2022-10-18T05:49:49.545Z,98801.83
2022-10-18T05:52:17.834Z,98804.81
2022-10-18T05:54:45.907Z,98805.80
2022-10-18T05:57:13.977Z,98807.60
2022-10-18T05:59:41.948Z,98806.36
2022-10-18T06:02:12.108Z,98808.30
2022-10-18T06:04:40.041Z,98803.52
2022-10-18T06:07:12.206Z,98803.08
2022-10-18T06:09:40.481Z,98801.69
2022-10-18T06:12:09.167Z,98802.57
2022-10-18T06:14:37.653Z,98802.05
2022-10-18T06:17:05.926Z,98800.79
2022-10-18T06:19:33.813Z,98798.92
2022-10-18T06:22:02.081Z,98794.48
2022-10-18T06:24:30.042Z,98791.63
2022-10-18T06:26:58.675Z,98789.87
2022-10-18T06:29:26.819Z,98786.27
2022-10-18T06:31:55.075Z,98785.73
2022-10-18T06:34:23.046Z,98782.05
2022-10-18T06:36:56.418Z,98776.41
2022-10-18T06:39:26.563Z,98778.23
2022-10-18T06:41:54.745Z,98777.15
2022-10-18T06:44:23.010Z,98778.77
2022-10-18T06:46:52.007Z,98782.90
2022-10-18T06:49:20.084Z,98779.17
2022-10-18T06:51:48.220Z,98780.00
2022-10-18T06:54:18.333Z,98780.27
2022-10-18T06:56:46.979Z,98780.11
2022-10-18T06:59:15.340Z,98780.63
2022-10-18T07:01:43.909Z,98779.83
2022-10-18T07:04:12.081Z,98775.46
2022-10-18T07:06:40.164Z,98774.30
2022-10-18T07:09:08.240Z,98774.01
2022-10-18T07:11:36.207Z,98772.88
2022-10-18T07:14:05.042Z,98770.86
2022-10-18T07:16:34.520Z,98769.83
2022-10-18T07:19:02.698Z,98765.79
2022-10-18T07:21:31.570Z,98764.84
2022-10-18T07:23:59.521Z,98761.52
2022-10-18T07:26:30.336Z,98754.91
2022-10-18T07:29:07.851Z,98755.23
2022-10-18T07:31:38.546Z,98753.62
2022-10-18T07:34:08.015Z,98753.99
2022-10-18T07:36:35.893Z,98748.39
2022-10-18T07:39:04.922Z,98749.92
2022-10-18T07:41:34.269Z,98748.76
2022-10-18T07:44:03.159Z,98747.08
2022-10-18T07:46:31.434Z,98746.05
2022-10-18T07:48:59.814Z,98740.80
2022-10-18T07:51:28.294Z,98738.88
2022-10-18T07:53:56.365Z,98733.52
2022-10-18T07:56:24.443Z,98734.79
2022-10-18T07:58:54.257Z,98729.73
2022-10-18T08:01:24.127Z,98729.46
2022-10-18T08:03:53.161Z,98728.46
2022-10-18T08:06:22.952Z,98721.67
2022-10-18T08:08:52.479Z,98713.85
2022-10-18T08:11:23.574Z,98711.02
2022-10-18T08:13:53.129Z,98708.47
2022-10-18T08:16:28.996Z,98702.14
2022-10-18T08:19:00.455Z,98700.17
2022-10-18T08:21:28.610Z,98698.60
2022-10-18T08:23:56.613Z,98695.45
2022-10-18T08:26:24.703Z,98690.74
2022-10-18T08:28:58.544Z,98688.70
2022-10-18T08:31:37.857Z,98687.50
2022-10-18T08:34:05.876Z,98682.74
2022-10-18T08:36:34.051Z,98680.76
2022-10-18T08:39:03.348Z,98678.90
2022-10-18T08:41:44.317Z,98676.39
2022-10-18T08:44:23.037Z,98669.86
2022-10-18T08:47:06.774Z,98667.54
2022-10-18T08:49:46.775Z,98665.95
2022-10-18T08:52:58.523Z,98659.33
2022-10-18T08:55:36.430Z,98656.48
2022-10-18T08:58:17.298Z,98654.91
2022-10-18T09:00:58.988Z,98657.36
2022-10-18T09:03:47.812Z,98654.33
2022-10-18T09:06:43.172Z,98648.80
2022-10-18T09:09:32.951Z,98646.81
2022-10-18T09:12:26.003Z,98646.48
2022-10-18T09:15:18.545Z,98641.55
2022-10-18T09:18:14.064Z,98641.60
2022-10-18T09:21:00.466Z,98642.57
2022-10-18T09:23:46.922Z,98643.33
2022-10-18T09:26:20.059Z,98635.15
2022-10-18T09:29:09.780Z,98634.66
2022-10-18T09:31:50.708Z,98629.88
2022-10-18T09:34:29.029Z,98626.87
2022-10-18T09:36:58.030Z,98624.51
2022-10-18T09:39:31.452Z,98623.35
2022-10-18T09:42:12.180Z,98621.04
2022-10-18T09:44:45.783Z,98616.55
2022-10-18T09:47:37.151Z,98618.23
2022-10-18T09:50:42.756Z,98612.13
2022-10-18T09:53:20.445Z,98607.45
2022-10-18T09:56:06.362Z,98606.45
2022-10-18T09:58:46.638Z,98604.64
2022-10-18T10:01:21.371Z,98597.66
2022-10-18T10:03:49.704Z,98592.26
2022-10-18T10:06:29.654Z,98588.07
2022-10-18T10:09:00.994Z,98581.85
2022-10-18T10:11:34.915Z,98580.89
2022-10-18T10:14:10.381Z,98574.27
2022-10-18T10:16:51.434Z,98568.61
2022-10-18T10:19:37.332Z,98564.49
2022-10-18T10:22:14.556Z,98556.84
2022-10-18T10:25:00.809Z,98551.49
2022-10-18T10:27:32.387Z,98547.65
2022-10-18T10:30:07.355Z,98543.77
2022-10-18T10:32:48.106Z,98542.41
2022-10-18T10:35:35.499Z,98539.42
2022-10-18T10:38:24.657Z,98536.27
2022-10-18T10:40:53.461Z,98532.98
2022-10-18T10:43:37.610Z,98526.08
2022-10-18T10:46:19.340Z,98522.90
2022-10-18T10:49:27.831Z,98515.36
2022-10-18T10:52:08.235Z,98516.23
2022-10-18T10:54:39.220Z,98512.09
2022-10-18T10:57:16.599Z,98508.21
2022-10-18T10:59:48.053Z,98497.65
2022-10-18T11:02:21.657Z,98492.86
2022-10-18T11:04:55.259Z,98491.89
2022-10-18T11:07:41.152Z,98485.88
2022-10-18T11:10:26.871Z,98485.64
2022-10-18T11:13:05.551Z,98480.55
2022-10-18T11:15:36.590Z,98471.98
2022-10-18T11:18:10.922Z,98464.23
2022-10-18T11:20:43.936Z,98465.46
2022-10-18T11:23:14.837Z,98459.31
2022-10-18T11:26:05.029Z,98454.73
2022-10-18T11:29:07.172Z,98450.25
2022-10-18T11:32:07.681Z,98450.21
2022-10-18T11:34:47.997Z,98446.44
2022-10-18T11:37:28.208Z,98439.92
2022-10-18T11:40:17.721Z,98436.06
2022-10-18T11:43:12.772Z,98431.44
2022-10-18T11:46:00.661Z,98426.02
2022-10-18T11:49:07.247Z,98421.80
2022-10-18T11:52:06.612Z,98412.52
2022-10-18T11:54:44.995Z,98408.46
2022-10-18T11:57:27.979Z,98406.15
2022-10-18T12:00:08.544Z,98400.80
2022-10-18T12:03:14.431Z,98394.39
2022-10-18T12:05:46.724Z,98387.23
2022-10-18T12:08:21.406Z,98381.20
2022-10-18T12:11:04.471Z,98378.75
2022-10-18T12:13:50.314Z,98373.20
2022-10-18T12:16:38.901Z,98366.95
2022-10-18T12:19:23.571Z,98366.63
2022-10-18T12:22:13.989Z,98362.86
2022-10-18T12:24:42.489Z,98360.64
2022-10-18T12:27:14.577Z,98360.02
2022-10-18T12:29:51.588Z,98358.33
2022-10-18T12:32:27.210Z,98356.25
2022-10-18T12:35:01.375Z,98351.61
2022-10-18T12:37:51.199Z,98349.54
2022-10-18T12:40:46.951Z,98348.53
2022-10-18T12:43:41.718Z,98338.13
2022-10-18T12:46:13.702Z,98334.48
2022-10-18T12:48:48.780Z,98333.48
2022-10-18T12:51:20.030Z,98333.34
2022-10-18T12:53:55.055Z,98331.57
2022-10-18T12:56:29.326Z,98331.73
2022-10-18T12:59:15.569Z,98330.06
2022-10-18T13:01:55.599Z,98328.92
2022-10-18T13:04:32.697Z,98326.50
2022-10-18T13:07:08.356Z,98328.89
2022-10-18T13:10:03.049Z,98323.73
2022-10-18T13:12:43.815Z,98316.79
2022-10-18T13:15:47.253Z,98312.23
2022-10-18T13:18:22.481Z,98309.69
2022-10-18T13:21:11.059Z,98305.65
2022-10-18T13:23:41.950Z,98302.42
2022-10-18T13:26:38.060Z,98304.54
2022-10-18T13:29:36.972Z,98299.10
2022-10-18T13:34:48.271Z,98293.19
2022-10-18T13:37:16.329Z,98289.38
2022-10-18T13:39:45.254Z,98283.05
2022-10-18T13:42:16.133Z,98282.10
2022-10-18T13:44:45.064Z,98276.44
2022-10-18T13:47:33.994Z,98269.55
2022-10-18T13:50:22.558Z,98267.42
2022-10-18T13:53:10.619Z,98263.47
2022-10-18T13:55:57.533Z,98263.27
2022-10-18T13:58:49.244Z,98262.58
2022-10-18T14:02:00.308Z,98260.37
2022-10-18T14:04:46.979Z,98258.83
2022-10-18T14:07:19.441Z,98251.10
2022-10-18T14:09:59.495Z,98248.31
2022-10-18T14:12:47.885Z,98250.58
2022-10-18T14:15:26.345Z,98247.81
2022-10-18T14:18:02.281Z,98243.74
2022-10-18T14:21:01.534Z,98243.69
2022-10-18T14:23:42.062Z,98239.23
2022-10-18T14:26:19.039Z,98237.78
2022-10-18T14:29:03.225Z,98234.52
2022-10-18T14:31:31.776Z,98236.26
2022-10-18T14:34:00.174Z,98236.94
2022-10-18T14:36:35.720Z,98237.17
2022-10-18T14:39:07.810Z,98236.05
2022-10-18T14:41:41.266Z,98234.48
2022-10-18T14:44:29.833Z,98233.16
2022-10-18T14:47:03.842Z,98233.27
2022-10-18T14:49:32.038Z,98236.04
2022-10-18T14:52:01.231Z,98237.60
2022-10-18T14:54:37.987Z,98233.84
2022-10-18T14:57:07.500Z,98236.27
2022-10-18T14:59:59.838Z,98231.25
2022-10-18T15:02:30.727Z,98225.58
2022-10-18T15:05:19.957Z,98222.92
2022-10-18T15:07:50.334Z,98216.14
2022-10-18T15:10:23.406Z,98216.30
2022-10-18T15:13:09.293Z,98215.42
2022-10-18T15:15:39.591Z,98213.27
2022-10-18T15:18:15.937Z,98210.14
2022-10-18T15:20:43.843Z,98211.54
2022-10-18T15:23:38.799Z,98205.66
2022-10-18T15:26:13.218Z,98201.27
2022-10-18T15:28:50.236Z,98200.73
2022-10-18T15:31:27.861Z,98202.02
2022-10-18T15:34:10.825Z,98199.27
2022-10-18T15:36:38.844Z,98200.11
2022-10-18T15:39:13.427Z,98200.81
2022-10-18T15:41:49.065Z,98197.45
2022-10-18T15:44:51.034Z,98198.81
2022-10-18T15:47:21.778Z,98195.02
2022-10-18T15:49:51.329Z,98196.98
2022-10-18T15:52:39.511Z,98197.55
2022-10-18T15:55:46.376Z,98196.75
2022-10-18T15:58:21.469Z,98192.14
2022-10-18T16:00:51.345Z,98193.23
2022-10-18T16:03:22.387Z,98191.86
2022-10-18T16:05:56.376Z,98192.08
2022-10-18T16:08:28.913Z,98193.70
2022-10-18T16:10:58.995Z,98192.69
2022-10-18T16:13:27.578Z,98191.45
2022-10-18T16:15:59.748Z,98189.86
2022-10-18T16:18:28.229Z,98189.80
2022-10-18T16:20:56.812Z,98189.77
2022-10-18T16:23:28.717Z,98192.48
2022-10-18T16:25:57.284Z,98191.52
2022-10-18T16:28:26.684Z,98191.46
2022-10-18T16:31:02.166Z,98195.99
2022-10-18T16:33:31.098Z,98195.58
2022-10-18T16:35:59.171Z,98191.98
2022-10-18T16:38:32.637Z,98193.98
2022-10-18T16:41:04.977Z,98192.02
2022-10-18T16:43:34.777Z,98197.71
2022-10-18T16:46:04.696Z,98196.45
2022-10-18T16:48:33.267Z,98194.02
2022-10-18T16:51:01.735Z,98195.97
2022-10-18T16:53:29.682Z,98193.05
2022-10-18T16:56:00.553Z,98193.93
2022-10-18T16:58:30.328Z,98196.56
2022-10-18T17:01:01.025Z,98197.36
2022-10-18T17:03:31.617Z,98196.91
2022-10-18T17:05:59.589Z,98197.40
2022-10-18T17:08:28.328Z,98203.14
2022-10-18T17:10:59.479Z,98205.81
2022-10-18T17:13:27.645Z,98203.46
2022-10-18T17:15:55.868Z,98205.60
2022-10-18T17:18:30.577Z,98208.89
2022-10-18T17:21:02.872Z,98207.25
2022-10-18T17:23:31.246Z,98208.90
2022-10-18T17:26:08.658Z,98207.67
2022-10-18T17:28:43.631Z,98209.23
2022-10-18T17:31:14.536Z,98202.23
2022-10-18T17:33:42.838Z,98200.77
2022-10-18T17:36:11.292Z,98201.42
2022-10-18T17:38:39.221Z,98202.84
2022-10-18T17:41:11.418Z,98202.27
2022-10-18T17:46:14.820Z,98198.73
2022-10-18T17:48:43.915Z,98198.98
2022-10-18T17:51:14.886Z,98197.09
2022-10-18T17:53:43.028Z,98195.43
2022-10-18T17:56:12.125Z,98196.66
2022-10-18T17:58:43.277Z,98197.78
2022-10-18T18:01:15.749Z,98195.59
2022-10-18T18:03:44.075Z,98192.90
2022-10-18T18:06:19.704Z,98186.70
2022-10-18T18:08:49.279Z,98184.33
2022-10-18T18:11:18.583Z,98179.35
2022-10-18T18:13:46.446Z,98181.35
2022-10-18T18:16:16.054Z,98177.79
2022-10-18T18:18:48.806Z,98173.09
2022-10-18T18:21:17.444Z,98165.48
2022-10-18T18:23:46.230Z,98161.95
2022-10-18T18:26:15.409Z,98155.38
2022-10-18T18:28:43.823Z,98154.89
2022-10-18T18:31:24.982Z,98152.56
2022-10-18T18:33:55.717Z,98154.17
2022-10-18T18:36:29.017Z,98153.64
2022-10-18T18:38:57.955Z,98148.71
2022-10-18T18:41:28.231Z,98147.01
2022-10-18T18:43:59.013Z,98141.05
2022-10-18T18:46:30.020Z,98141.46
2022-10-18T18:48:58.473Z,98141.34
2022-10-18T18:51:26.751Z,98134.92
2022-10-18T18:53:55.336Z,98131.55
2022-10-18T18:56:26.179Z,98129.77
2022-10-18T18:58:55.061Z,98127.73
2022-10-18T19:01:25.577Z,98130.25
2022-10-18T19:03:55.652Z,98129.63
2022-10-18T19:06:30.727Z,98128.02
2022-10-18T19:09:02.814Z,98136.20
2022-10-18T19:11:37.915Z,98139.89
2022-10-18T19:14:08.416Z,98142.98
2022-10-18T19:16:39.234Z,98145.30
2022-10-18T19:19:11.706Z,98140.37
2022-10-18T19:21:48.258Z,98137.02
2022-10-18T19:24:16.227Z,98135.79
2022-10-18T19:26:53.104Z,98129.03
2022-10-18T19:29:29.137Z,98127.26
2022-10-18T19:31:59.901Z,98126.50
2022-10-18T19:34:29.391Z,98125.05
2022-10-18T19:36:58.091Z,98122.77
2022-10-18T19:39:31.725Z,98125.90
2022-10-18T19:42:03.346Z,98125.95
2022-10-18T19:44:33.761Z,98123.04
2022-10-18T19:47:03.188Z,98122.55
2022-10-18T19:49:31.250Z,98125.23
2022-10-18T19:51:59.219Z,98125.80
2022-10-18T19:54:27.189Z,98127.45
2022-10-18T19:56:55.373Z,98123.58
2022-10-18T19:59:24.260Z,98122.45
2022-10-18T20:01:52.240Z,98122.11
2022-10-18T20:04:20.299Z,98118.61
2022-10-18T20:06:48.340Z,98115.84
2022-10-18T20:09:19.670Z,98119.75
2022-10-18T20:11:49.025Z,98114.33
2022-10-18T20:14:16.918Z,98113.50
2022-10-18T20:16:44.913Z,98114.63
2022-10-18T20:19:12.929Z,98111.77
2022-10-18T20:21:40.895Z,98109.47
2022-10-18T20:24:09.536Z,98104.75
2022-10-18T20:26:37.786Z,98103.25
2022-10-18T20:29:07.565Z,98102.73
2022-10-18T20:31:38.465Z,98096.48
2022-10-18T20:34:10.693Z,98090.98
2022-10-18T20:36:39.672Z,98090.46
2022-10-18T20:39:08.277Z,98089.98
2022-10-18T20:41:38.891Z,98088.09
2022-10-18T20:44:11.935Z,98083.65
2022-10-18T20:46:40.663Z,98083.51
2022-10-18T20:49:12.757Z,98080.30
2022-10-18T20:51:41.109Z,98077.71
2022-10-18T20:54:10.493Z,98075.75
2022-10-18T20:56:39.223Z,98075.77
2022-10-18T20:59:09.904Z,98078.15
2022-10-18T21:01:39.727Z,98079.96
2022-10-18T21:04:09.775Z,98079.33
2022-10-18T21:06:41.045Z,98078.95
2022-10-18T21:09:12.669Z,98076.23
2022-10-18T21:11:43.061Z,98079.98
2022-10-18T21:14:13.782Z,98083.92
2022-10-18T21:16:42.968Z,98081.61
2022-10-18T21:19:15.012Z,98078.55
2022-10-18T21:21:44.903Z,98075.65
2022-10-18T21:24:13.701Z,98070.50
2022-10-18T21:26:41.969Z,98072.06
2022-10-18T21:29:11.569Z,98067.37
2022-10-18T21:31:41.695Z,98059.35
2022-10-18T21:34:15.696Z,98054.09
2022-10-18T21:36:47.269Z,98044.80
2022-10-18T21:39:19.153Z,98040.52
2022-10-18T21:41:47.831Z,98038.12
2022-10-18T21:44:17.012Z,98037.18
2022-10-18T21:46:47.037Z,98035.33
2022-10-18T21:49:16.325Z,98038.75
2022-10-18T21:51:44.602Z,98036.95
2022-10-18T21:54:14.717Z,98036.17
2022-10-18T21:56:43.614Z,98033.63
2022-10-18T21:59:13.352Z,98031.12
2022-10-18T22:01:44.193Z,98025.12
2022-10-18T22:04:23.481Z,98023.59
2022-10-18T22:06:52.012Z,98022.85
2022-10-18T22:09:21.512Z,98021.81
2022-10-18T22:11:53.316Z,98016.09
2022-10-18T22:14:22.389Z,98008.80
2022-10-18T22:16:51.332Z,98003.12
2022-10-18T22:19:19.569Z,98000.73
2022-10-18T22:21:47.767Z,97999.50
2022-10-18T22:24:16.311Z,98000.72
2022-10-18T22:26:45.771Z,98004.66
2022-10-18T22:29:19.317Z,98001.35
2022-10-18T22:31:53.289Z,97997.66
2022-10-18T22:34:29.252Z,97995.75
2022-10-18T22:36:57.253Z,97995.82
2022-10-18T22:39:25.511Z,97993.10
2022-10-18T22:41:56.463Z,97990.16
2022-10-18T22:44:26.757Z,97983.56
2022-10-18T22:46:54.804Z,97977.88
2022-10-18T22:49:22.793Z,97973.00
2022-10-18T22:51:50.762Z,97971.99
2022-10-18T22:54:19.139Z,97968.47
2022-10-18T22:56:47.007Z,97968.16
2022-10-18T22:59:15.024Z,97966.30
2022-10-18T23:01:42.896Z,97965.45
2022-10-18T23:04:11.088Z,97966.23
2022-10-18T23:06:40.214Z,97967.55
2022-10-18T23:09:10.655Z,97967.98
2022-10-18T23:11:38.531Z,97967.15
2022-10-18T23:14:07.708Z,97966.35
2022-10-18T23:16:36.294Z,97967.34
2022-10-18T23:19:04.774Z,97966.05
2022-10-18T23:21:34.352Z,97962.73
2022-10-18T23:24:02.497Z,97962.79
2022-10-18T23:26:30.818Z,97958.07
2022-10-18T23:28:59.358Z,97956.20
2022-10-18T23:31:30.672Z,97959.71
2022-10-18T23:34:02.277Z,97965.36
2022-10-18T23:36:32.751Z,97960.33
2022-10-18T23:39:01.566Z,97956.58
2022-10-18T23:41:29.830Z,97953.94
2022-10-18T23:43:57.839Z,97949.92
2022-10-18T23:46:26.035Z,97945.04
2022-10-18T23:48:54.182Z,97945.90
2022-10-18T23:51:22.306Z,97947.13
2022-10-18T23:53:50.175Z,97945.20
2022-10-18T23:56:18.144Z,97944.13
2022-10-18T23:58:46.848Z,97945.95
